Lombok/Zainuddin Abdul Madjid International Airport

Airport
ICAO code: 
WADL
IATA Code: 
LOP
Summary
ICAO Region: 
APAC
Territory: 
Location: 
Central Lombok, West Nusa Tenggara
Serving: 
Mataram
Elevation: 
319 ft
Coordinates: 
Aerial View: 
8° 45' 29.002" S, 116° 16' 35" E
Metar
Observation
WADL 171630Z 32007KT 7000 -RA FEW015CB BKN016 24/24 Q1010 NOSIG RMK CB ALL RWY
Station
Lombok International Airport
Date/Time
2022-01-17 16:30:00
Wind direction
320°
Wind speed
07 kts
Lowest cloud amount
few clouds
Temperature
24°C
Dew point
24°C
Humidity
100%
QNH
1010 hPa
Weather condition
n/a

International airport serving Lombok.

Climatology

Tropical Savanna climate (Köppen climate classification Aw) - monthly mean temperature above 18°C in every month of the year and a pronounced dry season.

Runways

Designator Length Width Surface Rops
13/31 2743 0 ASPHALT Yes/Yes
Airport map: 
Aerial View: 

SKYbrary Partners:

Safety knowledge contributed by: